createdAt,value
2022-09-04T00:01:17.536Z,84.25
2022-09-04T00:04:00.521Z,84.21
2022-09-04T00:06:38.241Z,84.57
2022-09-04T00:09:16.043Z,84.71
2022-09-04T00:12:08.706Z,84.80
2022-09-04T00:14:45.295Z,84.62
2022-09-04T00:17:49.988Z,84.23
2022-09-04T00:20:25.374Z,84.50
2022-09-04T00:23:25.292Z,84.51
2022-09-04T00:25:57.282Z,84.35
2022-09-04T00:28:30.566Z,84.73
2022-09-04T00:31:04.367Z,84.88
2022-09-04T00:33:54.753Z,84.83
2022-09-04T00:36:24.176Z,84.87
2022-09-04T00:38:57.517Z,85.28
2022-09-04T00:41:45.847Z,85.10
2022-09-04T00:44:47.387Z,85.22
2022-09-04T00:47:31.988Z,85.21
2022-09-04T00:50:11.762Z,85.24
2022-09-04T00:52:58.594Z,85.24
2022-09-04T00:56:03.523Z,85.22
2022-09-04T00:59:12.236Z,85.05
2022-09-04T01:01:39.031Z,85.13
2022-09-04T01:04:24.633Z,85.14
2022-09-04T01:07:22.880Z,85.12
2022-09-04T01:10:25.114Z,84.47
2022-09-04T01:13:03.578Z,84.74
2022-09-04T01:15:41.169Z,84.28
2022-09-04T01:18:24.129Z,84.14
2022-09-04T01:21:10.035Z,84.29
2022-09-04T01:23:52.131Z,83.76
2022-09-04T01:26:32.773Z,83.41
2022-09-04T01:29:22.787Z,83.36
2022-09-04T01:32:12.261Z,83.79
2022-09-04T01:34:49.684Z,83.28
2022-09-04T01:37:41.580Z,83.67
2022-09-04T01:40:36.597Z,83.37
2022-09-04T01:43:12.092Z,83.34
2022-09-04T01:45:54.577Z,82.85
2022-09-04T01:48:33.343Z,83.16
2022-09-04T01:51:12.727Z,82.83
2022-09-04T01:53:43.664Z,82.41
2022-09-04T01:56:19.074Z,82.05
2022-09-04T01:58:55.885Z,81.23
2022-09-04T02:01:45.778Z,80.91
2022-09-04T02:04:27.851Z,81.08
2022-09-04T02:07:26.477Z,81.49
2022-09-04T02:10:07.311Z,81.26
2022-09-04T02:12:50.964Z,80.72
2022-09-04T02:15:35.626Z,80.21
2022-09-04T02:18:26.836Z,80.25
2022-09-04T02:21:02.404Z,80.46
2022-09-04T02:23:52.102Z,80.38
2022-09-04T02:26:33.847Z,80.34
2022-09-04T02:29:24.289Z,80.14
2022-09-04T02:32:01.440Z,80.00
2022-09-04T02:34:52.010Z,80.03
2022-09-04T02:37:37.472Z,79.79
2022-09-04T02:40:20.507Z,79.60
2022-09-04T02:43:21.218Z,79.67
2022-09-04T02:45:57.016Z,79.34
2022-09-04T02:48:57.479Z,79.39
2022-09-04T02:51:46.525Z,79.56
2022-09-04T02:54:30.084Z,79.16
2022-09-04T02:57:15.156Z,79.03
2022-09-04T03:00:08.169Z,79.33
2022-09-04T03:02:45.132Z,79.49
2022-09-04T03:05:19.625Z,79.12
2022-09-04T03:07:51.257Z,78.98
2022-09-04T03:10:34.124Z,79.14
2022-09-04T03:13:10.428Z,79.27
2022-09-04T03:15:39.739Z,79.06
2022-09-04T03:18:17.155Z,79.55
2022-09-04T03:20:51.924Z,79.72
2022-09-04T03:23:29.717Z,80.05
2022-09-04T03:26:14.916Z,79.92
2022-09-04T03:29:24.560Z,80.78
2022-09-04T03:32:16.052Z,81.63
2022-09-04T03:35:07.871Z,81.69
2022-09-04T03:37:53.764Z,83.08
2022-09-04T03:40:42.766Z,84.52
2022-09-04T03:43:39.786Z,85.41
2022-09-04T03:46:09.081Z,85.33
2022-09-04T03:48:50.859Z,85.01
2022-09-04T03:51:25.553Z,85.27
2022-09-04T03:54:07.792Z,84.97
2022-09-04T03:56:59.265Z,84.58
2022-09-04T03:59:54.674Z,85.12
2022-09-04T04:02:35.180Z,86.17
2022-09-04T04:05:24.591Z,86.25
2022-09-04T04:08:28.855Z,85.81
2022-09-04T04:11:19.589Z,85.81
2022-09-04T04:14:15.220Z,85.68
2022-09-04T04:17:01.111Z,85.95
2022-09-04T04:19:40.591Z,87.02
2022-09-04T04:22:37.691Z,87.99
2022-09-04T04:25:16.471Z,88.73
2022-09-04T04:28:27.347Z,89.06
2022-09-04T04:31:18.884Z,89.07
2022-09-04T04:33:59.918Z,89.21
2022-09-04T04:36:41.232Z,89.64
2022-09-04T04:39:32.889Z,90.29
2022-09-04T04:42:18.467Z,90.79
2022-09-04T04:45:14.575Z,90.41
2022-09-04T04:47:52.911Z,90.29
2022-09-04T04:50:27.768Z,91.09
2022-09-04T04:53:08.121Z,91.98
2022-09-04T04:55:59.376Z,91.59
2022-09-04T04:59:20.457Z,90.70
2022-09-04T05:02:07.810Z,90.15
2022-09-04T05:04:40.351Z,89.44
2022-09-04T05:07:17.673Z,88.25
2022-09-04T05:09:51.548Z,87.28
2022-09-04T05:12:34.055Z,86.20
2022-09-04T05:15:13.357Z,84.88
2022-09-04T05:17:51.486Z,84.49
2022-09-04T05:20:48.765Z,83.67
2022-09-04T05:23:40.453Z,83.49
2022-09-04T05:26:16.939Z,83.13
2022-09-04T05:29:09.597Z,82.67
2022-09-04T05:31:56.942Z,81.02
2022-09-04T05:34:51.703Z,80.22
2022-09-04T05:37:45.970Z,79.98
2022-09-04T05:40:28.087Z,79.50
2022-09-04T05:43:10.227Z,78.27
2022-09-04T05:45:45.641Z,77.79
2022-09-04T05:48:25.024Z,77.78
2022-09-04T05:51:32.120Z,78.00
2022-09-04T05:54:40.627Z,76.56
2022-09-04T05:57:36.215Z,75.68
2022-09-04T06:00:13.250Z,75.92
2022-09-04T06:02:49.612Z,75.03
2022-09-04T06:05:26.234Z,74.43
2022-09-04T06:07:59.537Z,74.68
2022-09-04T06:10:41.129Z,74.00
2022-09-04T06:13:21.558Z,73.13
2022-09-04T06:16:06.714Z,73.09
2022-09-04T06:18:51.871Z,72.67
2022-09-04T06:21:52.556Z,72.70
2022-09-04T06:24:56.527Z,72.08
2022-09-04T06:27:44.556Z,70.87
2022-09-04T06:30:15.805Z,71.30
2022-09-04T06:32:55.910Z,71.38
2022-09-04T06:35:40.543Z,70.95
2022-09-04T06:38:27.153Z,69.92
2022-09-04T06:41:14.854Z,69.65
2022-09-04T06:44:01.143Z,69.08
2022-09-04T06:46:38.829Z,69.54
2022-09-04T06:49:21.128Z,68.58
2022-09-04T06:52:15.846Z,67.39
2022-09-04T06:55:07.773Z,66.89
2022-09-04T06:58:01.965Z,66.22
2022-09-04T07:00:32.224Z,66.45
2022-09-04T07:03:28.022Z,65.18
2022-09-04T07:06:24.450Z,65.57
2022-09-04T07:09:12.534Z,65.14
2022-09-04T07:12:26.586Z,63.56
2022-09-04T07:15:05.016Z,64.56
2022-09-04T07:17:38.078Z,63.22
2022-09-04T07:20:21.950Z,63.32
2022-09-04T07:22:54.413Z,64.12
2022-09-04T07:25:26.098Z,62.83
2022-09-04T07:28:50.007Z,62.56
2022-09-04T07:31:24.536Z,62.61
2022-09-04T07:34:15.576Z,62.28
2022-09-04T07:37:15.023Z,62.38
2022-09-04T07:39:56.911Z,62.17
2022-09-04T07:42:55.667Z,62.78
2022-09-04T07:45:48.567Z,61.51
2022-09-04T07:48:34.691Z,62.26
2022-09-04T07:51:10.462Z,60.87
2022-09-04T07:53:48.990Z,61.07
2022-09-04T07:56:35.199Z,61.07
2022-09-04T07:59:29.075Z,61.70
2022-09-04T08:02:10.755Z,61.73
2022-09-04T08:05:02.562Z,60.78
2022-09-04T08:07:32.769Z,61.05
2022-09-04T08:10:26.090Z,60.91
2022-09-04T08:12:56.207Z,60.38
2022-09-04T08:15:42.953Z,60.38
2022-09-04T08:18:28.483Z,60.34
2022-09-04T08:21:16.594Z,59.58
2022-09-04T08:23:49.019Z,60.18
2022-09-04T08:26:39.996Z,60.62
2022-09-04T08:29:40.016Z,60.04
2022-09-04T08:32:28.574Z,59.43
2022-09-04T08:35:17.998Z,59.89
2022-09-04T08:38:06.162Z,60.16
2022-09-04T08:40:54.316Z,58.78
2022-09-04T08:44:05.978Z,59.03
2022-09-04T08:47:19.581Z,58.45
2022-09-04T08:50:01.266Z,57.61
2022-09-04T08:52:52.567Z,58.04
2022-09-04T08:55:18.871Z,58.68
2022-09-04T08:58:00.573Z,57.77
2022-09-04T09:01:05.068Z,56.26
2022-09-04T09:04:11.953Z,57.94
2022-09-04T09:06:47.398Z,57.97
2022-09-04T09:09:34.753Z,56.97
2022-09-04T09:12:10.251Z,58.05
2022-09-04T09:14:55.017Z,57.16
2022-09-04T09:17:39.010Z,57.51
2022-09-04T09:20:19.964Z,56.34
2022-09-04T09:23:18.248Z,56.50
2022-09-04T09:26:04.438Z,56.58
2022-09-04T09:28:49.327Z,57.16
2022-09-04T09:31:46.383Z,56.46
2022-09-04T09:34:54.575Z,55.64
2022-09-04T09:37:53.860Z,55.95
2022-09-04T09:40:48.293Z,55.08
2022-09-04T09:43:29.829Z,54.43
2022-09-04T09:46:09.041Z,54.42
2022-09-04T09:48:44.613Z,54.41
2022-09-04T09:51:37.077Z,54.03
2022-09-04T09:54:30.471Z,52.69
2022-09-04T09:57:34.149Z,54.06
2022-09-04T10:00:09.448Z,52.04
2022-09-04T10:02:54.750Z,52.48
2022-09-04T10:05:51.805Z,52.03
2022-09-04T10:08:40.135Z,52.33
2022-09-04T10:11:38.825Z,51.68
2022-09-04T10:14:33.284Z,51.77
2022-09-04T10:17:30.471Z,50.96
2022-09-04T10:20:26.374Z,51.69
2022-09-04T10:23:29.073Z,51.58
2022-09-04T10:26:02.421Z,51.55
2022-09-04T10:28:59.412Z,52.11
2022-09-04T10:31:42.817Z,50.22
2022-09-04T10:34:20.152Z,50.21
2022-09-04T10:37:30.803Z,50.72
2022-09-04T10:40:34.540Z,49.99
2022-09-04T10:43:25.618Z,50.43
2022-09-04T10:46:22.976Z,50.70
2022-09-04T10:49:08.320Z,51.43
2022-09-04T10:52:04.855Z,51.87
2022-09-04T10:54:50.759Z,50.41
2022-09-04T10:57:37.235Z,50.59
2022-09-04T11:00:10.871Z,50.40
2022-09-04T11:03:03.200Z,50.45
2022-09-04T11:05:48.370Z,49.71
2022-09-04T11:08:39.698Z,48.92
2022-09-04T11:11:43.397Z,48.74
2022-09-04T11:14:36.305Z,46.77
2022-09-04T11:17:11.458Z,46.26
2022-09-04T11:20:07.933Z,46.00
2022-09-04T11:22:46.917Z,46.26
2022-09-04T11:25:37.377Z,45.65
2022-09-04T11:28:36.040Z,46.37
2022-09-04T11:31:33.247Z,46.00
2022-09-04T11:34:38.916Z,45.23
2022-09-04T11:37:47.260Z,45.62
2022-09-04T11:40:43.159Z,45.42
2022-09-04T11:44:05.924Z,44.98
2022-09-04T11:47:03.984Z,43.90
2022-09-04T11:50:07.572Z,44.31
2022-09-04T11:53:01.702Z,44.23
2022-09-04T11:55:58.311Z,43.25
2022-09-04T11:58:33.390Z,44.64
2022-09-04T12:01:10.025Z,45.59
2022-09-04T12:03:59.114Z,42.84
2022-09-04T12:06:37.582Z,43.44
2022-09-04T12:09:22.620Z,42.38
2022-09-04T12:12:18.244Z,42.98
2022-09-04T12:15:14.492Z,42.97
2022-09-04T12:18:04.405Z,43.61
2022-09-04T12:20:39.465Z,43.04
2022-09-04T12:23:26.155Z,43.10
2022-09-04T12:26:11.550Z,42.85
2022-09-04T12:28:38.093Z,42.34
2022-09-04T12:31:15.750Z,42.79
2022-09-04T12:34:18.332Z,43.68
2022-09-04T12:37:11.200Z,41.61
2022-09-04T12:40:05.742Z,41.94
2022-09-04T12:42:41.258Z,42.07
2022-09-04T12:45:07.698Z,42.05
2022-09-04T12:48:04.735Z,41.80
2022-09-04T12:51:13.675Z,42.13
2022-09-04T12:53:49.302Z,41.94
2022-09-04T12:56:26.154Z,41.74
2022-09-04T12:59:11.503Z,42.96
2022-09-04T13:02:34.208Z,41.66
2022-09-04T13:05:22.993Z,41.89
2022-09-04T13:07:54.956Z,41.09
2022-09-04T13:10:33.950Z,42.73
2022-09-04T13:13:18.307Z,41.87
2022-09-04T13:16:02.585Z,40.12
2022-09-04T13:18:34.745Z,40.63
2022-09-04T13:21:19.051Z,41.13
2022-09-04T13:23:57.128Z,40.70
2022-09-04T13:26:37.430Z,41.20
2022-09-04T13:29:23.546Z,41.19
2022-09-04T13:31:55.831Z,41.45
2022-09-04T13:35:00.345Z,41.36
2022-09-04T13:38:05.069Z,41.77
2022-09-04T13:40:43.517Z,42.73
2022-09-04T13:43:47.329Z,41.39
2022-09-04T13:46:30.010Z,40.33
2022-09-04T13:49:09.831Z,41.83
2022-09-04T13:51:43.296Z,40.84
2022-09-04T13:54:17.532Z,41.23
2022-09-04T13:56:52.511Z,40.90
2022-09-04T13:59:21.987Z,40.78
2022-09-04T14:01:54.669Z,41.20
2022-09-04T14:04:44.571Z,40.94
2022-09-04T14:07:25.024Z,41.74
2022-09-04T14:09:55.601Z,41.01
2022-09-04T14:12:24.688Z,41.01
2022-09-04T14:15:08.900Z,41.62
2022-09-04T14:17:46.075Z,41.40
2022-09-04T14:20:23.296Z,41.23
2022-09-04T14:23:20.271Z,41.90
2022-09-04T14:25:56.892Z,43.25
2022-09-04T14:29:08.514Z,43.26
2022-09-04T14:31:46.854Z,42.75
2022-09-04T14:34:38.664Z,43.95
2022-09-04T14:37:17.047Z,43.37
2022-09-04T14:39:57.756Z,43.63
2022-09-04T14:42:44.237Z,44.23
2022-09-04T14:45:36.544Z,43.79
2022-09-04T14:48:11.346Z,43.33
2022-09-04T14:50:49.359Z,44.60
2022-09-04T14:53:33.459Z,43.93
2022-09-04T14:56:19.295Z,44.29
2022-09-04T14:58:52.361Z,43.77
2022-09-04T15:01:25.851Z,44.07
2022-09-04T15:04:00.127Z,43.99
2022-09-04T15:06:49.269Z,44.60
2022-09-04T15:09:35.041Z,43.78
2022-09-04T15:12:26.846Z,44.15
2022-09-04T15:15:10.214Z,44.80
2022-09-04T15:17:39.942Z,44.45
2022-09-04T15:20:15.223Z,45.40
2022-09-04T15:22:50.276Z,45.21
2022-09-04T15:25:48.016Z,44.89
2022-09-04T15:28:38.249Z,45.45
2022-09-04T15:31:15.894Z,46.70
2022-09-04T15:33:44.262Z,45.74
2022-09-04T15:36:18.009Z,45.99
2022-09-04T15:38:52.271Z,45.38
2022-09-04T15:41:31.890Z,45.62
2022-09-04T15:44:08.556Z,45.10
2022-09-04T15:46:46.347Z,45.64
2022-09-04T15:49:28.729Z,44.93
2022-09-04T15:52:10.343Z,44.79
2022-09-04T15:54:39.747Z,44.79
2022-09-04T15:57:37.780Z,44.21
2022-09-04T16:00:14.977Z,44.80
2022-09-04T16:02:54.551Z,45.42
2022-09-04T16:05:44.705Z,45.80
2022-09-04T16:08:21.531Z,45.42
2022-09-04T16:11:01.408Z,45.21
2022-09-04T16:13:28.821Z,45.23
2022-09-04T16:16:04.374Z,46.22
2022-09-04T16:18:49.283Z,46.71
2022-09-04T16:21:32.318Z,47.37
2022-09-04T16:24:08.898Z,47.18
2022-09-04T16:26:36.957Z,47.88
2022-09-04T16:29:23.278Z,47.82
2022-09-04T16:31:54.980Z,47.67
2022-09-04T16:34:29.364Z,48.09
2022-09-04T16:37:09.498Z,47.83
2022-09-04T16:40:14.982Z,48.43
2022-09-04T16:42:46.769Z,48.41
2022-09-04T16:45:18.128Z,49.03
2022-09-04T16:47:55.443Z,49.04
2022-09-04T16:50:24.852Z,48.53
2022-09-04T16:53:13.476Z,48.67
2022-09-04T16:55:47.230Z,49.37
2022-09-04T16:58:35.347Z,49.66
2022-09-04T17:01:50.305Z,48.60
2022-09-04T17:04:21.296Z,49.12
2022-09-04T17:07:13.043Z,49.15
2022-09-04T17:09:48.408Z,49.43
2022-09-04T17:12:33.585Z,49.85
2022-09-04T17:15:21.875Z,49.90
2022-09-04T17:17:48.428Z,49.04
2022-09-04T17:22:20.164Z,49.39
2022-09-04T17:29:02.240Z,50.14
2022-09-04T17:29:08.797Z,50.20
2022-09-04T17:29:36.352Z,50.05
2022-09-04T17:32:33.639Z,50.70
2022-09-04T17:40:44.118Z,50.24
2022-09-04T17:41:34.653Z,50.89
2022-09-04T17:41:48.620Z,51.38
2022-09-04T17:44:50.412Z,51.11
2022-09-04T17:47:32.694Z,50.77
2022-09-04T17:50:01.365Z,50.38
2022-09-04T17:52:33.960Z,50.91
2022-09-04T17:55:08.047Z,51.32
2022-09-04T17:58:33.191Z,51.55
2022-09-04T18:01:14.588Z,51.48
2022-09-04T18:04:02.814Z,51.45
2022-09-04T18:06:50.805Z,51.16
2022-09-04T18:09:27.122Z,51.69
2022-09-04T18:12:35.882Z,51.14
2022-09-04T18:15:33.871Z,51.30
2022-09-04T18:18:27.941Z,51.92
2022-09-04T18:21:15.096Z,52.15
2022-09-04T18:23:51.175Z,51.78
2022-09-04T18:26:40.398Z,51.66
2022-09-04T18:31:59.193Z,52.49
2022-09-04T18:37:10.140Z,52.70
2022-09-04T18:37:18.975Z,52.50
2022-09-04T18:38:09.357Z,52.94
2022-09-04T18:43:44.999Z,53.20
2022-09-04T18:50:25.241Z,53.84
2022-09-04T18:50:34.796Z,53.90
2022-09-04T18:51:03.084Z,54.53
2022-09-04T18:52:21.611Z,54.64
2022-09-04T18:54:54.400Z,55.14
2022-09-04T18:57:29.682Z,54.84
2022-09-04T19:00:08.785Z,56.04
2022-09-04T19:03:11.918Z,56.38
2022-09-04T19:05:44.892Z,56.57
2022-09-04T19:08:20.474Z,56.95
2022-09-04T19:10:54.169Z,56.12
2022-09-04T19:13:28.724Z,55.85
2022-09-04T19:16:13.529Z,56.93
2022-09-04T19:18:46.078Z,56.48
2022-09-04T19:21:23.421Z,56.50
2022-09-04T19:23:50.403Z,57.38
2022-09-04T19:26:35.590Z,57.77
2022-09-04T19:29:17.585Z,57.84
2022-09-04T19:31:46.814Z,58.44
2022-09-04T19:34:28.423Z,58.44
2022-09-04T19:37:02.226Z,58.61
2022-09-04T19:46:03.557Z,58.83
2022-09-04T19:46:11.288Z,59.82
2022-09-04T19:46:24.941Z,59.92
2022-09-04T19:48:39.998Z,59.77
2022-09-04T19:53:30.628Z,59.13
2022-09-04T19:54:57.829Z,59.98
2022-09-04T19:57:46.222Z,59.45
2022-09-04T20:00:42.082Z,60.45
2022-09-04T20:03:29.554Z,59.28
2022-09-04T20:06:27.374Z,60.01
2022-09-04T20:09:12.948Z,60.10
2022-09-04T20:11:47.678Z,60.04
2022-09-04T20:14:26.523Z,59.33
2022-09-04T20:16:52.922Z,59.00
2022-09-04T20:19:31.075Z,59.04
2022-09-04T20:22:03.526Z,58.62
2022-09-04T20:24:42.959Z,58.71
2022-09-04T20:27:38.351Z,59.53
2022-09-04T20:30:24.490Z,59.27
2022-09-04T20:32:53.941Z,59.97
2022-09-04T20:35:44.476Z,59.48
2022-09-04T20:38:37.167Z,60.10
2022-09-04T20:41:16.534Z,59.09
2022-09-04T20:44:13.629Z,59.47
2022-09-04T20:52:44.714Z,60.07
2022-09-04T20:52:51.518Z,59.88
2022-09-04T20:53:05.941Z,60.38
2022-09-04T20:55:32.056Z,60.37
2022-09-04T21:02:48.595Z,60.56
2022-09-04T21:03:17.135Z,60.74
2022-09-04T21:04:23.840Z,60.50
2022-09-04T21:07:28.472Z,61.00
2022-09-04T21:10:15.099Z,61.11
2022-09-04T21:13:13.719Z,61.25
2022-09-04T21:15:40.573Z,61.69
2022-09-04T21:18:18.174Z,62.30
2022-09-04T21:21:00.648Z,62.52
2022-09-04T21:23:46.479Z,62.74
2022-09-04T21:26:28.323Z,63.17
2022-09-04T21:29:11.168Z,63.70
2022-09-04T21:32:08.948Z,63.89
2022-09-04T21:34:45.109Z,63.63
2022-09-04T21:37:23.824Z,63.64
2022-09-04T21:39:59.435Z,64.32
2022-09-04T21:42:53.021Z,64.55
2022-09-04T21:45:36.470Z,64.90
2022-09-04T21:48:25.739Z,64.97
2022-09-04T21:51:28.378Z,65.73
2022-09-04T21:54:23.293Z,65.86
2022-09-04T22:02:29.836Z,65.78
2022-09-04T22:02:35.358Z,66.04
2022-09-04T22:03:19.202Z,66.17
2022-09-04T22:06:07.901Z,66.48
2022-09-04T22:13:29.894Z,66.61
2022-09-04T22:13:44.168Z,67.12
2022-09-04T22:15:05.500Z,67.08
2022-09-04T22:17:41.039Z,67.33
2022-09-04T22:20:18.533Z,67.47
2022-09-04T22:23:24.746Z,67.33
2022-09-04T22:26:29.664Z,67.80
2022-09-04T22:29:10.340Z,68.18
2022-09-04T22:31:45.627Z,67.98
2022-09-04T22:34:36.689Z,68.14
2022-09-04T22:37:44.814Z,68.73
2022-09-04T22:40:17.199Z,68.72
2022-09-04T22:42:53.505Z,69.13
2022-09-04T22:45:28.959Z,69.55
2022-09-04T22:48:26.955Z,69.15
2022-09-04T22:51:20.342Z,69.20
2022-09-04T22:54:06.228Z,69.63
2022-09-04T22:56:46.329Z,69.51
2022-09-04T22:59:55.245Z,69.93
2022-09-04T23:05:44.996Z,70.12
2022-09-04T23:13:43.580Z,70.28
2022-09-04T23:13:54.154Z,69.89
2022-09-04T23:14:49.294Z,70.17
2022-09-04T23:17:58.305Z,70.47
2022-09-04T23:26:39.012Z,70.22
2022-09-04T23:26:45.850Z,70.12
2022-09-04T23:27:00.460Z,70.04
2022-09-04T23:30:03.745Z,70.50
2022-09-04T23:32:39.907Z,70.09
2022-09-04T23:35:15.102Z,69.70
2022-09-04T23:38:00.551Z,68.83
2022-09-04T23:41:01.775Z,68.53
2022-09-04T23:44:05.995Z,68.61
2022-09-04T23:46:47.566Z,68.70
2022-09-04T23:49:29.072Z,68.81
2022-09-04T23:52:03.174Z,68.79
2022-09-04T23:54:55.521Z,68.33
2022-09-04T23:57:29.078Z,68.53
